Time;durP1;ratioP1;P1;durP2;ratioP2;P2;SDS_P1;SDS_P2;PMS_P1;PMS_P2;Temp;Humidity;BMP_temperature;BMP_pressure;BME280_temperature;BME280_humidity;BME280_pressure;Samples;Min_cycle;Max_cycle;Signal;HPM_P1;HPM_P2
2023/08/06 03:01:05;;;;;;;0.88;0.73;;;22.60;56.70;;;;;;5669191;23;46439;-86
2023/08/06 03:03:31;;;;;;;0.82;0.63;;;22.60;56.70;;;;;;4906350;28;46992;-84
2023/08/06 03:05:56;;;;;;;0.80;0.80;;;22.60;56.70;;;;;;4882881;28;46462;-84
2023/08/06 03:08:22;;;;;;;0.68;0.55;;;22.60;56.70;;;;;;4883244;28;45220;-83
2023/08/06 03:10:51;;;;;;;0.90;0.68;;;22.60;56.70;;;;;;4878665;28;44967;-83
2023/08/06 03:13:17;;;;;;;0.70;0.70;;;22.60;56.70;;;;;;4890959;28;46936;-84
2023/08/06 03:15:43;;;;;;;2.22;0.60;;;22.60;56.70;;;;;;4890256;28;45320;-83
2023/08/06 03:18:08;;;;;;;0.60;0.52;;;22.60;56.70;;;;;;4865981;28;45717;-83
2023/08/06 03:20:34;;;;;;;0.70;0.70;;;22.60;56.60;;;;;;4882393;28;45655;-84
2023/08/06 03:22:59;;;;;;;0.68;0.68;;;22.60;56.70;;;;;;4892565;28;45581;-85
2023/08/06 03:25:25;;;;;;;0.85;0.55;;;22.60;56.60;;;;;;4896939;28;45459;-84
2023/08/06 03:27:50;;;;;;;0.52;0.50;;;22.60;56.70;;;;;;4886527;28;45281;-84
2023/08/06 03:30:16;;;;;;;0.70;0.70;;;22.60;56.60;;;;;;4897991;28;45550;-83
2023/08/06 03:32:41;;;;;;;0.68;0.65;;;22.60;56.60;;;;;;4880408;28;46260;-86
2023/08/06 03:35:07;;;;;;;0.82;0.70;;;22.60;56.60;;;;;;4878269;28;45445;-85
2023/08/06 03:37:33;;;;;;;0.68;0.68;;;22.60;56.60;;;;;;4875983;28;45513;-83
2023/08/06 03:39:58;;;;;;;0.80;0.80;;;22.50;56.60;;;;;;4880041;28;44953;-83
2023/08/06 03:42:24;;;;;;;0.60;0.60;;;22.60;56.60;;;;;;4864215;28;47351;-83
2023/08/06 03:44:49;;;;;;;0.77;0.77;;;22.60;56.60;;;;;;4869544;28;45228;-85
2023/08/06 03:47:15;;;;;;;0.70;0.70;;;22.60;56.60;;;;;;4876929;28;45427;-84
2023/08/06 03:49:40;;;;;;;1.38;0.60;;;22.60;56.60;;;;;;4885126;28;45646;-84
2023/08/06 03:52:06;;;;;;;1.30;1.00;;;22.60;56.60;;;;;;4879741;28;47223;-84
2023/08/06 03:54:32;;;;;;;0.73;0.73;;;22.60;56.60;;;;;;4900010;28;45469;-83
2023/08/06 03:56:57;;;;;;;0.55;0.55;;;22.50;56.60;;;;;;4863931;28;45109;-82
2023/08/06 03:59:23;;;;;;;0.75;0.70;;;22.60;56.60;;;;;;4882568;28;46077;-85
2023/08/06 04:01:49;;;;;;;0.70;0.65;;;22.50;56.60;;;;;;4881704;28;47105;-83
2023/08/06 04:04:14;;;;;;;0.80;0.60;;;22.60;56.60;;;;;;4883431;28;45520;-84
2023/08/06 04:06:40;;;;;;;0.68;0.68;;;22.50;56.60;;;;;;4868287;28;45207;-84
2023/08/06 04:09:06;;;;;;;0.70;0.68;;;22.50;56.60;;;;;;4883742;28;45318;-87
2023/08/06 04:11:32;;;;;;;0.57;0.57;;;22.60;56.60;;;;;;4882817;28;45784;-84
2023/08/06 04:13:57;;;;;;;0.55;0.45;;;22.60;56.60;;;;;;4868291;28;46073;-83
2023/08/06 04:16:23;;;;;;;0.70;0.70;;;22.50;56.60;;;;;;4884838;28;44809;-85
2023/08/06 04:18:48;;;;;;;0.95;0.80;;;22.50;56.60;;;;;;4901302;28;45234;-83
2023/08/06 04:21:14;;;;;;;0.73;0.70;;;22.50;56.60;;;;;;4882253;28;46800;-83
2023/08/06 04:23:39;;;;;;;0.60;0.60;;;22.60;56.60;;;;;;4897183;28;45292;-84
2023/08/06 04:26:05;;;;;;;0.35;0.30;;;22.60;56.60;;;;;;4869021;28;45056;-84
2023/08/06 04:28:31;;;;;;;0.77;0.68;;;22.50;56.50;;;;;;4906088;28;45378;-82
2023/08/06 04:30:56;;;;;;;0.50;0.50;;;22.50;56.60;;;;;;4907347;28;47419;-85
2023/08/06 04:33:22;;;;;;;0.60;0.55;;;22.60;56.60;;;;;;4891806;28;45158;-83
2023/08/06 04:35:47;;;;;;;0.82;0.82;;;22.60;56.60;;;;;;4861652;28;45309;-84
2023/08/06 04:38:13;;;;;;;0.80;0.50;;;22.60;56.60;;;;;;4877032;28;45149;-86
2023/08/06 04:40:38;;;;;;;0.65;0.63;;;22.60;56.60;;;;;;4877941;28;47103;-85
2023/08/06 04:43:04;;;;;;;1.25;0.70;;;22.50;56.50;;;;;;4910262;28;45507;-85
2023/08/06 04:45:30;;;;;;;0.70;0.68;;;22.50;56.60;;;;;;4870156;28;45220;-85
2023/08/06 04:47:55;;;;;;;0.60;0.60;;;22.50;56.50;;;;;;4907056;28;45274;-84
2023/08/06 04:50:21;;;;;;;0.82;0.70;;;22.50;56.50;;;;;;4872259;28;47076;-84
2023/08/06 04:52:46;;;;;;;0.68;0.60;;;22.50;56.50;;;;;;4870008;28;45720;-84
2023/08/06 04:55:12;;;;;;;0.60;0.60;;;22.50;56.50;;;;;;4899342;28;45432;-86
2023/08/06 04:57:37;;;;;;;0.88;0.80;;;22.50;56.50;;;;;;4885578;28;45001;-85
2023/08/06 05:00:06;;;;;;;0.60;0.60;;;22.50;56.50;;;;;;4885287;28;45933;-89
2023/08/06 05:02:34;;;;;;;1.05;0.80;;;22.50;56.50;;;;;;4888898;28;45743;-86
2023/08/06 05:05:00;;;;;;;2.85;0.73;;;22.50;56.50;;;;;;4885561;28;45492;-84
2023/08/06 05:07:25;;;;;;;3.80;0.50;;;22.50;56.50;;;;;;4901622;28;45208;-84
2023/08/06 05:09:51;;;;;;;0.77;0.65;;;22.50;56.50;;;;;;4885505;28;46395;-84
2023/08/06 05:12:16;;;;;;;0.82;0.65;;;22.50;56.50;;;;;;4901002;28;45681;-85
2023/08/06 05:14:42;;;;;;;1.23;0.70;;;22.50;56.50;;;;;;4884087;28;45566;-85
2023/08/06 05:17:07;;;;;;;0.65;0.60;;;22.50;56.50;;;;;;4895150;28;45790;-87
2023/08/06 05:19:33;;;;;;;0.68;0.60;;;22.50;56.50;;;;;;4869920;28;47514;-85
2023/08/06 05:21:58;;;;;;;0.70;0.52;;;22.50;56.50;;;;;;4898183;28;45559;-83
2023/08/06 05:24:24;;;;;;;0.52;0.52;;;22.50;56.50;;;;;;4887093;28;45560;-83
2023/08/06 05:26:49;;;;;;;2.15;0.80;;;22.50;56.50;;;;;;4897733;28;45118;-83
2023/08/06 05:29:16;;;;;;;1.50;0.60;;;22.50;56.50;;;;;;4888824;28;45639;-85
2023/08/06 05:31:42;;;;;;;0.60;0.60;;;22.50;56.40;;;;;;4879726;28;45560;-85
2023/08/06 05:34:07;;;;;;;0.90;0.70;;;22.50;56.50;;;;;;4897516;28;48184;-83
2023/08/06 05:36:33;;;;;;;0.63;0.60;;;22.50;56.40;;;;;;4878620;28;45328;-85
2023/08/06 05:38:58;;;;;;;0.95;0.60;;;22.50;56.50;;;;;;4886440;28;47931;-82
2023/08/06 05:41:24;;;;;;;0.65;0.52;;;22.50;56.50;;;;;;4897274;28;45009;-84
2023/08/06 05:43:50;;;;;;;0.50;0.50;;;22.50;56.50;;;;;;4885345;28;45344;-84
2023/08/06 05:46:15;;;;;;;1.52;0.77;;;22.50;56.40;;;;;;4879257;28;45830;-85
2023/08/06 05:48:41;;;;;;;0.90;0.65;;;22.50;56.50;;;;;;4869880;28;46822;-86
2023/08/06 05:51:06;;;;;;;1.02;0.60;;;22.50;56.50;;;;;;4880538;28;44789;-84
2023/08/06 05:53:32;;;;;;;0.88;0.68;;;22.50;56.50;;;;;;4883786;28;45416;-85
2023/08/06 05:55:57;;;;;;;0.57;0.57;;;22.50;56.50;;;;;;4880780;28;44866;-84
2023/08/06 05:58:25;;;;;;;0.50;0.50;;;22.50;56.40;;;;;;4901205;28;45600;-84
2023/08/06 06:00:51;;;;;;;0.50;0.50;;;22.50;56.50;;;;;;4900440;28;44932;-85
2023/08/06 06:03:17;;;;;;;0.98;0.50;;;22.50;56.40;;;;;;4870128;28;45503;-87
2023/08/06 06:05:42;;;;;;;0.50;0.50;;;22.50;56.50;;;;;;4886116;28;45265;-83
2023/08/06 06:08:08;;;;;;;1.65;0.50;;;22.50;56.50;;;;;;4901341;28;46212;-84
2023/08/06 06:10:33;;;;;;;0.57;0.55;;;22.50;56.40;;;;;;4894830;28;44969;-84
2023/08/06 06:12:59;;;;;;;0.55;0.50;;;22.50;56.50;;;;;;4895337;28;45225;-84
2023/08/06 06:15:24;;;;;;;0.60;0.60;;;22.50;56.50;;;;;;4894673;28;45274;-84
2023/08/06 06:17:50;;;;;;;0.50;0.50;;;22.50;56.40;;;;;;4880722;28;46209;-85
2023/08/06 06:20:15;;;;;;;0.82;0.60;;;22.50;56.50;;;;;;4884110;28;45519;-84
2023/08/06 06:22:41;;;;;;;1.02;0.60;;;22.50;56.50;;;;;;4872055;28;45206;-84
2023/08/06 06:25:07;;;;;;;0.68;0.68;;;22.50;56.40;;;;;;4867966;28;45412;-86
2023/08/06 06:27:33;;;;;;;0.85;0.43;;;22.50;56.50;;;;;;4884119;28;44924;-83
2023/08/06 06:29:58;;;;;;;0.50;0.50;;;22.50;56.50;;;;;;4881461;28;44727;-85
2023/08/06 06:32:24;;;;;;;0.60;0.60;;;22.50;56.50;;;;;;4874850;28;45572;-84
2023/08/06 06:34:49;;;;;;;0.50;0.50;;;22.50;56.50;;;;;;4883400;28;45111;-85
2023/08/06 06:37:15;;;;;;;0.60;0.52;;;22.50;56.40;;;;;;4865512;28;46338;-85
2023/08/06 06:39:41;;;;;;;0.70;0.50;;;22.50;56.50;;;;;;4854337;28;45496;-84
2023/08/06 06:42:06;;;;;;;0.55;0.55;;;22.50;56.40;;;;;;4867912;28;45500;-85
2023/08/06 06:44:32;;;;;;;0.73;0.73;;;22.50;56.50;;;;;;4867352;28;45705;-85
2023/08/06 06:46:57;;;;;;;0.60;0.60;;;22.50;56.50;;;;;;4893441;28;46585;-84
2023/08/06 06:49:23;;;;;;;0.85;0.60;;;22.50;56.50;;;;;;4900137;28;45206;-82
2023/08/06 06:51:48;;;;;;;0.52;0.50;;;22.50;56.50;;;;;;4895515;28;45207;-83
2023/08/06 06:54:14;;;;;;;1.17;0.73;;;22.50;56.50;;;;;;4886036;28;45496;-84
2023/08/06 06:56:39;;;;;;;0.80;0.63;;;22.50;56.50;;;;;;4866072;28;47388;-84
2023/08/06 06:59:05;;;;;;;1.58;0.85;;;22.50;56.50;;;;;;4888599;28;45253;-84
2023/08/06 07:01:31;;;;;;;0.60;0.60;;;22.50;56.50;;;;;;4876508;28;45675;-83
2023/08/06 07:03:57;;;;;;;0.60;0.60;;;22.50;56.50;;;;;;4866345;28;45212;-85
2023/08/06 07:06:22;;;;;;;0.80;0.70;;;22.50;56.50;;;;;;4880503;28;46266;-84
2023/08/06 07:08:48;;;;;;;0.75;0.73;;;22.50;56.50;;;;;;4899014;28;45470;-87
2023/08/06 07:11:13;;;;;;;0.82;0.60;;;22.50;56.50;;;;;;4913377;28;45451;-84
2023/08/06 07:13:39;;;;;;;0.80;0.50;;;22.50;56.50;;;;;;4887033;28;45094;-84
2023/08/06 07:16:04;;;;;;;1.15;0.85;;;22.40;56.40;;;;;;4879034;28;45220;-82
2023/08/06 07:18:30;;;;;;;0.60;0.60;;;22.50;56.40;;;;;;4884658;28;45657;-85
2023/08/06 07:20:56;;;;;;;0.68;0.68;;;22.50;56.50;;;;;;4864773;28;44980;-84
2023/08/06 07:23:22;;;;;;;3.28;0.57;;;22.50;56.50;;;;;;4899309;28;45424;-85
2023/08/06 07:25:48;;;;;;;0.77;0.70;;;22.50;56.50;;;;;;4893723;28;46640;-86
2023/08/06 07:28:14;;;;;;;0.68;0.60;;;22.50;56.50;;;;;;4882169;28;45204;-83
2023/08/06 07:30:40;;;;;;;0.65;0.65;;;22.40;56.40;;;;;;4893232;28;45354;-89
2023/08/06 07:33:06;;;;;;;0.95;0.68;;;22.50;56.50;;;;;;4856934;28;45073;-83
2023/08/06 07:35:32;;;;;;;0.85;0.52;;;22.40;56.40;;;;;;4901056;28;47465;-83
2023/08/06 07:37:57;;;;;;;0.50;0.50;;;22.40;56.40;;;;;;4887955;28;45393;-84
2023/08/06 07:40:23;;;;;;;0.70;0.70;;;22.40;56.40;;;;;;4870138;28;45742;-83
2023/08/06 07:42:48;;;;;;;0.57;0.50;;;22.40;56.40;;;;;;4871923;28;45520;-83
2023/08/06 07:45:14;;;;;;;0.60;0.50;;;22.40;56.40;;;;;;4873098;28;47403;-85
2023/08/06 07:47:40;;;;;;;0.52;0.52;;;22.50;56.50;;;;;;4849986;28;45293;-83
2023/08/06 07:50:06;;;;;;;0.63;0.50;;;22.50;56.50;;;;;;4869820;28;45217;-83
2023/08/06 07:52:31;;;;;;;0.60;0.60;;;22.50;56.50;;;;;;4906848;28;45256;-82
2023/08/06 07:54:57;;;;;;;0.60;0.60;;;22.40;56.40;;;;;;4877538;28;46272;-83
2023/08/06 07:57:22;;;;;;;0.70;0.70;;;22.40;56.50;;;;;;4885571;28;44863;-83
2023/08/06 07:59:48;;;;;;;0.88;0.55;;;22.40;56.40;;;;;;4855534;28;44915;-82
2023/08/06 08:02:14;;;;;;;0.63;0.60;;;22.40;56.40;;;;;;4867658;28;45007;-84
2023/08/06 08:04:39;;;;;;;0.77;0.73;;;22.40;56.50;;;;;;4902088;28;46835;-84
2023/08/06 08:07:05;;;;;;;0.95;0.65;;;22.40;56.40;;;;;;4870306;28;45225;-83
2023/08/06 08:09:31;;;;;;;0.55;0.55;;;22.40;56.40;;;;;;4894923;28;45631;-84
2023/08/06 08:11:57;;;;;;;0.73;0.70;;;22.40;56.40;;;;;;4864699;28;45704;-84
2023/08/06 08:14:22;;;;;;;0.60;0.60;;;22.40;56.50;;;;;;4869941;28;46173;-84
2023/08/06 08:16:48;;;;;;;0.55;0.55;;;22.40;56.40;;;;;;4862520;28;44949;-84
2023/08/06 08:19:13;;;;;;;0.50;0.50;;;22.40;56.40;;;;;;4870288;28;45323;-83
2023/08/06 08:21:39;;;;;;;1.40;0.68;;;22.40;56.50;;;;;;4855764;28;46081;-82
2023/08/06 08:24:04;;;;;;;1.17;0.60;;;22.50;56.50;;;;;;4904567;28;45569;-83
2023/08/06 08:26:30;;;;;;;0.77;0.70;;;22.40;56.50;;;;;;4868510;28;45194;-85
2023/08/06 08:28:56;;;;;;;1.00;0.90;;;22.40;56.50;;;;;;4854204;28;45445;-84
2023/08/06 08:31:22;;;;;;;1.05;0.60;;;22.40;56.50;;;;;;4865529;28;45420;-83
2023/08/06 08:33:47;;;;;;;0.55;0.50;;;22.40;56.50;;;;;;4880757;28;45304;-83
2023/08/06 08:36:13;;;;;;;0.60;0.60;;;22.40;56.50;;;;;;4893990;28;44901;-83
2023/08/06 08:38:39;;;;;;;0.65;0.65;;;22.40;56.50;;;;;;4870885;28;45383;-86
2023/08/06 08:41:04;;;;;;;0.70;0.50;;;22.40;56.50;;;;;;4865881;28;45500;-83
2023/08/06 08:43:30;;;;;;;0.50;0.50;;;22.40;56.50;;;;;;4861732;28;47427;-83
2023/08/06 08:45:58;;;;;;;0.63;0.60;;;22.40;56.50;;;;;;4862451;28;45828;-84
2023/08/06 08:48:24;;;;;;;0.60;0.60;;;22.40;56.50;;;;;;4868115;28;45266;-83
2023/08/06 08:50:50;;;;;;;0.60;0.60;;;22.40;56.50;;;;;;4880939;28;44925;-82
2023/08/06 08:53:16;;;;;;;1.50;0.40;;;22.40;56.50;;;;;;4887526;28;45470;-84
2023/08/06 08:55:42;;;;;;;0.60;0.47;;;22.40;56.50;;;;;;4882106;28;45449;-84
2023/08/06 08:58:08;;;;;;;0.50;0.50;;;22.50;56.50;;;;;;4874521;28;45884;-86
2023/08/06 09:00:33;;;;;;;2.47;0.50;;;22.40;56.50;;;;;;4885268;28;44930;-85
2023/08/06 09:02:59;;;;;;;0.40;0.40;;;22.40;56.50;;;;;;4890331;28;46414;-84
2023/08/06 09:05:26;;;;;;;0.32;0.20;;;22.40;56.50;;;;;;4870947;28;45841;-85
2023/08/06 09:07:51;;;;;;;0.50;0.30;;;22.40;56.40;;;;;;4886366;28;45525;-85
2023/08/06 09:10:18;;;;;;;0.32;0.25;;;22.40;56.40;;;;;;4885244;28;45730;-83
2023/08/06 09:12:45;;;;;;;0.50;0.35;;;22.40;56.50;;;;;;4889969;28;47067;-83
2023/08/06 09:15:10;;;;;;;0.40;0.40;;;22.40;56.40;;;;;;4873110;28;44658;-87
2023/08/06 09:17:36;;;;;;;0.40;0.40;;;22.40;56.40;;;;;;4897786;28;45599;-84
2023/08/06 09:20:14;;;;;;;0.40;0.40;;;22.40;56.50;;;;;;4905281;28;45726;-83
2023/08/06 09:22:41;;;;;;;0.57;0.32;;;22.40;56.40;;;;;;4857020;28;47569;-85
2023/08/06 09:25:09;;;;;;;1.85;0.38;;;22.40;56.40;;;;;;4904263;28;45093;-87
2023/08/06 09:27:36;;;;;;;1.13;0.40;;;22.40;56.50;;;;;;4872175;28;45046;-84
2023/08/06 09:30:05;;;;;;;0.40;0.40;;;22.40;56.40;;;;;;4871601;28;45704;-83
2023/08/06 09:32:52;;;;;;;0.38;0.30;;;22.40;56.40;;;;;;4885008;28;45414;-83
2023/08/06 09:35:18;;;;;;;0.40;0.40;;;22.40;56.40;;;;;;4883871;28;45726;-83
2023/08/06 09:37:44;;;;;;;0.35;0.25;;;22.40;56.40;;;;;;4887300;28;44676;-83
2023/08/06 09:40:30;;;;;;;0.30;0.30;;;22.40;56.40;;;;;;4886080;28;45135;-85
2023/08/06 09:42:56;;;;;;;0.75;0.40;;;22.40;56.40;;;;;;4883522;28;46771;-84
2023/08/06 09:45:22;;;;;;;0.60;0.25;;;22.40;56.40;;;;;;4900769;28;45626;-83
2023/08/06 09:47:55;;;;;;;0.85;0.32;;;22.40;56.40;;;;;;4868046;28;45325;-85
2023/08/06 09:50:20;;;;;;;0.77;0.40;;;22.40;56.50;;;;;;4853566;28;44779;-83
2023/08/06 09:52:50;;;;;;;0.35;0.30;;;22.40;56.50;;;;;;4870524;28;48419;-84
2023/08/06 09:55:15;;;;;;;0.52;0.40;;;22.40;56.40;;;;;;4865029;28;44686;-83
2023/08/06 09:57:41;;;;;;;0.50;0.30;;;22.40;56.40;;;;;;4857477;28;45462;-85
2023/08/06 10:00:11;;;;;;;0.40;0.40;;;22.40;56.40;;;;;;4882091;28;45248;-87
2023/08/06 10:02:40;;;;;;;1.10;0.40;;;22.40;56.40;;;;;;4872683;28;45192;-86
2023/08/06 10:05:07;;;;;;;1.27;0.40;;;22.40;56.40;;;;;;4869605;28;45635;-88
2023/08/06 10:07:33;;;;;;;1.63;0.50;;;22.40;56.40;;;;;;4894669;28;45673;-84
2023/08/06 10:09:59;;;;;;;0.60;0.30;;;22.40;56.40;;;;;;4864701;28;45720;-83
2023/08/06 10:12:25;;;;;;;1.75;0.50;;;22.40;56.40;;;;;;4893906;28;45635;-85
2023/08/06 10:14:52;;;;;;;0.85;0.40;;;22.40;56.40;;;;;;4887321;28;45342;-84
2023/08/06 10:17:18;;;;;;;0.38;0.32;;;22.40;56.40;;;;;;4882036;28;45224;-86
2023/08/06 10:19:43;;;;;;;0.32;0.30;;;22.40;56.40;;;;;;4886652;28;45282;-82
2023/08/06 10:22:17;;;;;;;0.43;0.43;;;22.50;56.50;;;;;;4882763;28;45762;-84
2023/08/06 10:24:56;;;;;;;0.57;0.30;;;22.50;56.50;;;;;;4887630;28;44841;-84
2023/08/06 10:27:53;;;;;;;0.88;0.38;;;22.40;56.40;;;;;;4886007;28;45577;-84
2023/08/06 10:30:26;;;;;;;0.80;0.38;;;22.40;56.40;;;;;;4897968;28;45446;-89
2023/08/06 10:32:53;;;;;;;0.85;0.40;;;22.40;56.40;;;;;;4899643;28;46435;-86
2023/08/06 10:35:37;;;;;;;0.95;0.30;;;22.40;56.40;;;;;;4898136;28;45345;-86
2023/08/06 10:38:07;;;;;;;1.95;0.35;;;22.40;56.40;;;;;;4905990;28;45510;-83
2023/08/06 10:40:33;;;;;;;1.10;0.50;;;22.40;56.40;;;;;;4913654;28;45466;-85
2023/08/06 10:43:02;;;;;;;0.30;0.30;;;22.40;56.40;;;;;;4886486;28;45480;-84
2023/08/06 10:45:30;;;;;;;0.32;0.30;;;22.40;56.40;;;;;;4893597;28;45078;-87
2023/08/06 10:47:57;;;;;;;0.20;0.20;;;22.40;56.40;;;;;;4899739;28;45520;-84
2023/08/06 10:50:23;;;;;;;0.40;0.40;;;22.50;56.50;;;;;;4882080;28;45224;-83
2023/08/06 10:52:48;;;;;;;0.65;0.40;;;22.40;56.40;;;;;;4850913;28;46827;-84
2023/08/06 10:55:15;;;;;;;0.47;0.30;;;22.40;56.40;;;;;;4896941;28;45557;-85
2023/08/06 10:57:40;;;;;;;0.55;0.40;;;22.40;56.40;;;;;;4867669;28;45441;-88
2023/08/06 11:00:12;;;;;;;0.57;0.35;;;22.40;56.30;;;;;;4863971;28;45442;-87
2023/08/06 11:02:38;;;;;;;0.32;0.30;;;22.50;56.40;;;;;;4882651;28;45231;-83
2023/08/06 11:05:07;;;;;;;3.25;0.50;;;22.40;56.30;;;;;;4878021;28;45231;-88
2023/08/06 11:07:34;;;;;;;0.70;0.30;;;22.50;56.40;;;;;;4863767;29;45455;-83
2023/08/06 11:10:07;;;;;;;0.43;0.30;;;22.40;56.30;;;;;;4894143;28;44698;-83
2023/08/06 11:12:33;;;;;;;0.55;0.30;;;22.50;57.00;;;;;;4891281;28;45576;-83
2023/08/06 11:14:59;;;;;;;0.57;0.40;;;22.50;56.40;;;;;;4892679;28;45426;-84
2023/08/06 11:17:25;;;;;;;0.35;0.30;;;22.40;56.30;;;;;;4883562;29;45296;-83
2023/08/06 11:19:51;;;;;;;0.45;0.30;;;22.40;56.30;;;;;;4866603;29;45268;-83
2023/08/06 11:22:17;;;;;;;0.55;0.43;;;22.50;56.40;;;;;;4890292;28;47495;-83
2023/08/06 11:24:43;;;;;;;0.40;0.30;;;22.50;56.40;;;;;;4886197;29;44885;-85
2023/08/06 11:27:13;;;;;;;0.32;0.32;;;22.40;56.30;;;;;;4865851;28;45370;-83
2023/08/06 11:29:38;;;;;;;0.65;0.40;;;22.50;56.40;;;;;;4888155;29;44770;-83
2023/08/06 11:32:13;;;;;;;0.68;0.30;;;22.50;56.40;;;;;;4865451;28;47194;-84
2023/08/06 11:34:39;;;;;;;0.47;0.30;;;22.50;56.40;;;;;;4882131;29;45595;-85
2023/08/06 11:37:05;;;;;;;0.35;0.30;;;22.40;56.30;;;;;;4881768;28;45510;-85
2023/08/06 11:39:37;;;;;;;0.38;0.30;;;22.50;56.40;;;;;;4885431;29;45574;-84
2023/08/06 11:42:03;;;;;;;0.63;0.30;;;22.50;56.30;;;;;;4881487;29;46378;-84
2023/08/06 11:44:34;;;;;;;0.30;0.20;;;22.50;56.40;;;;;;4866835;28;45248;-84
2023/08/06 11:47:04;;;;;;;0.30;0.20;;;22.50;56.30;;;;;;4881406;28;45500;-85
2023/08/06 11:49:39;;;;;;;0.50;0.30;;;22.50;56.40;;;;;;4882747;28;45205;-84
2023/08/06 11:52:19;;;;;;;1.17;0.22;;;22.50;56.30;;;;;;4908803;28;46584;-82
2023/08/06 11:55:11;;;;;;;0.20;0.20;;;22.50;56.40;;;;;;4864348;29;45634;-86
2023/08/06 11:57:40;;;;;;;2.20;0.20;;;22.50;56.30;;;;;;4880181;29;45156;-84
2023/08/06 12:00:13;;;;;;;0.75;0.20;;;22.40;56.30;;;;;;4877159;29;45200;-88
2023/08/06 12:02:41;;;;;;;0.35;0.20;;;22.50;56.40;;;;;;4877474;28;46007;-84
2023/08/06 12:05:16;;;;;;;0.15;0.10;;;22.50;56.40;;;;;;4892142;28;45612;-88
2023/08/06 12:07:45;;;;;;;0.20;0.10;;;22.50;56.40;;;;;;4876309;28;45314;-85
2023/08/06 12:10:12;;;;;;;0.60;0.30;;;22.50;56.40;;;;;;4874883;28;45076;-85
2023/08/06 12:12:40;;;;;;;0.43;0.30;;;22.40;56.30;;;;;;4882357;28;47054;-84
2023/08/06 12:15:09;;;;;;;0.40;0.30;;;22.40;56.30;;;;;;4893403;28;45349;-87
2023/08/06 12:17:35;;;;;;;0.47;0.20;;;22.50;56.40;;;;;;4876491;29;45344;-84
2023/08/06 12:20:05;;;;;;;0.10;0.10;;;22.50;56.40;;;;;;4876967;29;45475;-85
2023/08/06 12:22:40;;;;;;;0.88;0.30;;;22.50;56.40;;;;;;4886600;28;46240;-84
2023/08/06 12:25:11;;;;;;;0.20;0.20;;;22.50;56.40;;;;;;4878243;28;45122;-86
2023/08/06 12:27:44;;;;;;;0.52;0.20;;;22.50;56.40;;;;;;4869760;29;45596;-83
2023/08/06 12:30:11;;;;;;;0.40;0.20;;;22.40;56.30;;;;;;4880827;28;45614;-88
2023/08/06 12:32:37;;;;;;;0.30;0.30;;;22.40;56.40;;;;;;4879646;29;45313;-85
2023/08/06 12:35:07;;;;;;;0.38;0.22;;;22.50;56.40;;;;;;4848257;29;45738;-88
2023/08/06 12:37:33;;;;;;;0.43;0.22;;;22.50;56.40;;;;;;4880868;28;45294;-85
2023/08/06 12:39:58;;;;;;;0.50;0.30;;;22.50;56.40;;;;;;4895551;28;45561;-84
2023/08/06 12:42:24;;;;;;;0.17;0.17;;;22.50;56.40;;;;;;4893635;28;45624;-84
2023/08/06 12:44:49;;;;;;;0.40;0.25;;;22.50;56.40;;;;;;4881675;28;44846;-83
2023/08/06 12:47:16;;;;;;;0.43;0.20;;;22.50;56.40;;;;;;4860799;29;45304;-85
2023/08/06 12:49:41;;;;;;;0.52;0.28;;;22.50;56.50;;;;;;4877691;29;45552;-83
2023/08/06 12:52:09;;;;;;;0.10;0.10;;;22.50;56.40;;;;;;4847216;29;47393;-84
2023/08/06 12:54:36;;;;;;;0.57;0.30;;;22.50;56.50;;;;;;4865962;28;45773;-83
2023/08/06 12:57:02;;;;;;;0.22;0.17;;;22.50;56.40;;;;;;4880407;28;45412;-84
2023/08/06 12:59:28;;;;;;;0.63;0.22;;;22.50;56.40;;;;;;4884086;28;45255;-85
2023/08/06 13:01:53;;;;;;;0.20;0.10;;;22.50;56.40;;;;;;4866030;29;47397;-83
2023/08/06 13:04:19;;;;;;;0.25;0.13;;;22.50;56.40;;;;;;4867023;28;45395;-83
2023/08/06 13:06:44;;;;;;;0.10;0.08;;;22.50;56.40;;;;;;4894311;28;45410;-83
2023/08/06 13:09:10;;;;;;;0.03;0.03;;;22.50;56.40;;;;;;4882267;28;44885;-83
2023/08/06 13:11:36;;;;;;;0.38;0.13;;;22.50;56.40;;;;;;4878565;29;46788;-85
2023/08/06 13:14:09;;;;;;;0.15;0.10;;;22.50;56.40;;;;;;4865881;29;45887;-83
2023/08/06 13:16:35;;;;;;;0.13;0.10;;;22.50;56.40;;;;;;4861532;29;44689;-83
2023/08/06 13:19:00;;;;;;;0.60;0.15;;;22.50;56.50;;;;;;4861869;28;45309;-84
2023/08/06 13:21:41;;;;;;;0.60;0.20;;;22.50;56.40;;;;;;4894582;28;46380;-83
2023/08/06 13:24:08;;;;;;;0.20;0.10;;;22.50;56.40;;;;;;4913271;28;45035;-85
2023/08/06 13:26:33;;;;;;;0.68;0.20;;;22.50;56.40;;;;;;4881051;28;45405;-87
2023/08/06 13:28:59;;;;;;;0.10;0.10;;;22.50;56.40;;;;;;4852186;28;46617;-85
2023/08/06 13:31:25;;;;;;;0.22;0.10;;;22.50;56.40;;;;;;4863605;29;46962;-83
2023/08/06 13:33:51;;;;;;;0.25;0.20;;;22.50;56.50;;;;;;4881692;29;45470;-84
2023/08/06 13:36:17;;;;;;;0.30;0.10;;;22.50;56.40;;;;;;4898004;28;45307;-84
2023/08/06 13:38:42;;;;;;;0.30;0.10;;;22.50;56.40;;;;;;4879179;29;45485;-83
2023/08/06 13:41:08;;;;;;;0.38;0.10;;;22.50;56.40;;;;;;4889741;28;46961;-84
2023/08/06 13:43:34;;;;;;;0.00;0.00;;;22.50;56.40;;;;;;4882891;29;46842;-83
2023/08/06 13:45:59;;;;;;;0.10;0.10;;;22.50;56.40;;;;;;4878612;29;45361;-88
2023/08/06 13:48:25;;;;;;;0.10;0.00;;;22.50;56.40;;;;;;4845220;28;45671;-83
2023/08/06 13:50:50;;;;;;;0.30;0.17;;;22.50;56.40;;;;;;4848072;28;47390;-83
2023/08/06 13:53:16;;;;;;;0.00;0.00;;;22.50;56.40;;;;;;4883885;29;45268;-83
2023/08/06 13:55:42;;;;;;;0.32;0.10;;;22.50;56.40;;;;;;4890944;28;45640;-84
2023/08/06 13:58:08;;;;;;;0.60;0.10;;;22.50;56.40;;;;;;4848644;29;45383;-84
2023/08/06 14:00:35;;;;;;;1.75;0.00;;;22.50;56.40;;;;;;4866285;28;47049;-83
2023/08/06 14:03:00;;;;;;;0.20;0.10;;;22.50;56.40;;;;;;4869084;28;45416;-84
2023/08/06 14:05:26;;;;;;;0.10;0.10;;;22.50;56.40;;;;;;4870127;28;45312;-85
2023/08/06 14:08:01;;;;;;;0.00;0.00;;;22.50;56.40;;;;;;4885175;28;45497;-84
2023/08/06 14:10:27;;;;;;;0.10;0.10;;;22.50;56.40;;;;;;4880861;28;45311;-87
2023/08/06 14:12:52;;;;;;;0.00;0.00;;;22.50;56.40;;;;;;4887198;28;44663;-84
2023/08/06 14:15:18;;;;;;;0.32;0.10;;;22.50;56.40;;;;;;4881704;28;45309;-89
2023/08/06 14:17:44;;;;;;;0.73;0.10;;;22.50;56.40;;;;;;4883611;28;45355;-83
2023/08/06 14:20:11;;;;;;;0.00;0.00;;;22.50;56.40;;;;;;4893376;28;45519;-88
2023/08/06 14:22:37;;;;;;;0.10;0.10;;;22.50;56.40;;;;;;4882235;28;45598;-84
2023/08/06 14:25:03;;;;;;;0.10;0.00;;;22.50;56.50;;;;;;4869066;28;45331;-88
2023/08/06 14:27:29;;;;;;;0.15;0.05;;;22.50;56.40;;;;;;4883104;28;45329;-85
2023/08/06 14:29:54;;;;;;;0.00;0.00;;;22.50;56.40;;;;;;4877699;28;45664;-88
2023/08/06 14:32:21;;;;;;;0.35;0.10;;;22.50;56.40;;;;;;4876798;28;46051;-84
2023/08/06 14:34:46;;;;;;;0.00;0.00;;;22.50;56.40;;;;;;4883840;28;44679;-83
2023/08/06 14:37:12;;;;;;;0.20;0.00;;;22.50;56.40;;;;;;4881381;28;45880;-85
2023/08/06 14:39:37;;;;;;;0.10;0.10;;;22.50;56.40;;;;;;4871100;28;46526;-83
2023/08/06 14:42:04;;;;;;;0.20;0.00;;;22.50;56.40;;;;;;4897468;28;46202;-83
2023/08/06 14:44:30;;;;;;;0.10;0.10;;;22.40;56.40;;;;;;4886320;28;45230;-83
2023/08/06 14:46:55;;;;;;;0.05;0.00;;;22.50;56.40;;;;;;4899491;28;45217;-87
2023/08/06 14:49:21;;;;;;;0.00;0.00;;;22.50;56.40;;;;;;4916462;28;45607;-83
2023/08/06 14:51:46;;;;;;;0.13;0.00;;;22.50;56.40;;;;;;4896302;28;45365;-84
2023/08/06 14:54:12;;;;;;;0.28;0.10;;;22.50;56.40;;;;;;4903152;28;45231;-84
2023/08/06 14:56:38;;;;;;;0.50;0.10;;;22.50;56.40;;;;;;4851187;28;46202;-82
2023/08/06 14:59:03;;;;;;;0.10;0.10;;;22.50;56.40;;;;;;4898941;28;45773;-84
2023/08/06 15:01:29;;;;;;;0.30;0.15;;;22.50;57.00;;;;;;4878601;28;45390;-84
2023/08/06 15:03:55;;;;;;;0.05;0.00;;;22.40;56.30;;;;;;4884985;28;46942;-84
2023/08/06 15:06:20;;;;;;;0.00;0.00;;;22.50;56.40;;;;;;4876830;28;45577;-84
2023/08/06 15:08:46;;;;;;;0.22;0.10;;;22.50;56.50;;;;;;4884555;28;45721;-84
2023/08/06 15:11:13;;;;;;;0.10;0.10;;;22.50;56.40;;;;;;4878839;28;45643;-85
2023/08/06 15:13:38;;;;;;;0.10;0.00;;;22.50;56.40;;;;;;4883468;28;45199;-83
2023/08/06 15:16:04;;;;;;;0.32;0.00;;;22.50;56.40;;;;;;4880879;28;45244;-84
2023/08/06 15:18:29;;;;;;;0.00;0.00;;;22.40;56.40;;;;;;4883231;28;46169;-83
2023/08/06 15:20:56;;;;;;;0.20;0.10;;;22.40;56.40;;;;;;4846761;28;45293;-84
2023/08/06 15:23:22;;;;;;;0.10;0.10;;;22.40;56.40;;;;;;4860671;28;46022;-84
2023/08/06 15:25:47;;;;;;;0.10;0.08;;;22.40;56.30;;;;;;4868489;28;44769;-83
2023/08/06 15:28:13;;;;;;;1.30;0.00;;;22.40;56.80;;;;;;4879239;28;46945;-84
2023/08/06 15:30:40;;;;;;;0.10;0.05;;;22.40;56.30;;;;;;4847173;28;45394;-83
2023/08/06 15:33:06;;;;;;;1.13;0.10;;;22.50;56.40;;;;;;4854480;28;45732;-84
2023/08/06 15:35:31;;;;;;;0.00;0.00;;;22.40;56.30;;;;;;4874739;28;45297;-83
2023/08/06 15:37:57;;;;;;;0.10;0.00;;;22.40;56.30;;;;;;4882787;28;47010;-84
2023/08/06 15:40:22;;;;;;;1.02;0.20;;;22.50;56.40;;;;;;4860138;28;45207;-83
2023/08/06 15:42:49;;;;;;;0.10;0.10;;;22.40;56.30;;;;;;4866968;28;44725;-86
2023/08/06 15:45:14;;;;;;;0.10;0.10;;;22.40;56.30;;;;;;4860151;28;45204;-86